Disney Wonder — C6QM8 — position and weather

sailwx.info

Track history (hours):
 
Tides and Currents Weather Stations Pressure Air Temp Water Temp Dewpoint Dewpoint Depression Visibility Wind Speed Wind Dir Waves Ship Positions

Disney Wonder

Last reported at 2017-Jul-22 06:00 UTC. Time now 2017-Jul-22 12:39 UTC.
Position N 57°24' W 133°42'.

Length 301 m; draft 8.2 m.

Type: Passenger vessel. MMSI: 308457000.

Wind from 330 at 9 knots

Barometer 1012.0 mb
Air temperature 15.0 ° C
Visibility: greater than 5.4 NM
Dewpoint 13.2 ° C
Water temperature 9.0 ° C

Date/timePositionNaut miles runAvg speedWind from/ knotsBaromVisibWave heightAir tempDewpointWater temp
2017-Jul-22 06:00N 57°24' W 133°42'95 2.2 330 / 91012.0 5.4 15.013.2 9.0
2017-Jul-20 11:00N 58°48' W 135°06'44810.7 180 / 91015.510.8 18.012.712.0
2017-Jul-18 17:00N 52°00' W 129°42'925.8 330 / 171017.010.8 13.011.110.0
2017-Jul-18 16:38N 51°51' W 129°38'320.6
2017-Jul-18 16:29N 51°48' W 129°36'1019.9
2017-Jul-18 16:00N 51°41' W 129°26'1019.9
2017-Jul-18 15:30N 51°35' W 129°14'1020.2
2017-Jul-18 15:00N 51°28' W 129°01'2121.0
2017-Jul-18 14:00N 51°15' W 128°35'1121.0
2017-Jul-18 13:30N 51°10' W 128°20'1121.1
2017-Jul-18 12:58N 51°05' W 128°04'1021.4
2017-Jul-18 12:30N 50°60' W 127°51'1122.0
2017-Jul-18 12:00N 50°53' W 127°37'1122.0
2017-Jul-18 11:30N 50°48' W 127°21'1122.3
2017-Jul-18 11:00N 50°44' W 127°05'1122.0
2017-Jul-18 10:30N 50°39' W 126°49'5219.8
2017-Jul-18 07:51N 50°21' W 125°32'614.1
2017-Jul-18 07:27N 50°18' W 125°25'817.6
2017-Jul-18 07:01N 50°10' W 125°22'611.8
2017-Jul-18 06:30N 50°05' W 125°17'612.9
2017-Jul-18 06:00N 49°60' W 125°12'713.5
2017-Jul-18 05:30N 49°55' W 125°04'815.7
2017-Jul-18 05:00N 49°50' W 124°55'815.8
2017-Jul-18 04:30N 49°45' W 124°46'815.8
2017-Jul-18 04:00N 49°38' W 124°39'816.2
2017-Jul-18 03:30N 49°32' W 124°32'915.6
2017-Jul-18 02:57N 49°26' W 124°22'716.1
2017-Jul-18 02:30N 49°24' W 124°12'816.2
2017-Jul-18 02:00N 49°21' W 123°59'917.3
2017-Jul-18 01:30N 49°20' W 123°46'917.6
2017-Jul-18 01:00N 49°19' W 123°33'917.6
2017-Jul-18 00:30N 49°19' W 123°20'815.7
2017-Jul-18 00:01N 49°19' W 123°08'1 2.6
2017-Jul-17 23:28N 49°17' W 123°07'0 0.0
2017-Jul-17 22:58N 49°17' W 123°07'0 0.0
2017-Jul-17 22:28N 49°17' W 123°07'0 0.0
2017-Jul-17 21:58N 49°17' W 123°07'0 0.0
2017-Jul-17 21:28N 49°17' W 123°07'0 0.0
2017-Jul-17 20:58N 49°17' W 123°07'0 0.0
2017-Jul-17 20:28N 49°17' W 123°07'0 0.0
2017-Jul-17 19:58N 49°17' W 123°07'0 0.0
2017-Jul-17 19:28N 49°17' W 123°07'0 0.0
2017-Jul-17 18:58N 49°17' W 123°07'0 0.0
2017-Jul-17 18:28N 49°17' W 123°07'0 0.0
2017-Jul-17 17:58N 49°17' W 123°07'0 0.0
2017-Jul-17 17:28N 49°17' W 123°07'0 0.0
2017-Jul-17 16:58N 49°17' W 123°07'0 0.0
2017-Jul-17 16:28N 49°17' W 123°07'0 0.0
2017-Jul-17 15:58N 49°17' W 123°07'0 0.0
2017-Jul-17 15:28N 49°17' W 123°07'0 0.0
2017-Jul-17 14:58N 49°17' W 123°07'0 0.0
2017-Jul-17 14:28N 49°17' W 123°07'0 0.0
2017-Jul-17 13:58N 49°17' W 123°07'0 0.4
2017-Jul-17 13:31N 49°18' W 123°07'2 4.4
2017-Jul-17 13:00N 49°19' W 123°09'510.0
2017-Jul-17 12:30N 49°18' W 123°17'5 9.9
2017-Jul-17 12:00N 49°18' W 123°25'5 9.7
2017-Jul-17 11:30N 49°18' W 123°32'5 9.4
2017-Jul-17 11:00N 49°18' W 123°39'510.4
2017-Jul-17 10:30N 49°19' W 123°47'1618.6
2017-Jul-17 09:38N 49°24' W 124°11'619.5
2017-Jul-17 09:21N 49°25' W 124°19'719.0
2017-Jul-17 08:57N 49°29' W 124°29'919.0
2017-Jul-17 08:30N 49°36' W 124°36'1019.0
2017-Jul-17 08:00N 49°43' W 124°46'918.9
2017-Jul-17 07:30N 49°50' W 124°57'1019.1
2017-Jul-17 07:00N 49°56' W 125°07'815.4
2017-Jul-17 06:30N 50°03' W 125°14'714.0
2017-Jul-17 06:00N 50°08' W 125°21'612.2
2017-Jul-17 05:29N 50°14' W 125°23'713.8
2017-Jul-17 05:00N 50°20' W 125°27'5015.5
2017-Jul-17 01:49N 50°34' W 126°42'515.1
2017-Jul-17 01:29N 50°38' W 126°47'816.2
2017-Jul-17 00:58N 50°42' W 126°58'816.0
2017-Jul-17 00:30N 50°45' W 127°09'816.1
2017-Jul-17 00:00N 50°48' W 127°21'816.8
2017-Jul-16 23:30N 50°52' W 127°33'917.8
2017-Jul-16 23:00N 50°57' W 127°44'917.6
2017-Jul-16 22:30N 51°05' W 127°52'918.1
2017-Jul-16 21:59N 51°14' W 127°53'917.8
2017-Jul-16 21:30N 51°23' W 127°52'917.6
2017-Jul-16 21:00N 51°31' W 127°51'918.2
2017-Jul-16 20:30N 51°40' W 127°54'917.9
2017-Jul-16 20:00N 51°49' W 127°56'917.5
2017-Jul-16 19:30N 51°58' W 127°56'918.0
2017-Jul-16 19:00N 52°07' W 127°53'2310.8
2017-Jul-16 16:52N 52°15' W 128°28'617.5
2017-Jul-16 16:30N 52°14' W 128°38'917.6
2017-Jul-16 16:00N 52°12' W 128°52'33610.2
2017-Jul-15 07:00N 56°48' W 134°24'67 1.3 230 / 51020.010.8 13.0 9.1 9.0
2017-Jul-13 05:00N 57°54' W 134°00'   150 / 81016.0 5.4 11.0 9.0 9.0
Track history (hours):
 
Tides and Currents Weather Stations Pressure Air Temp Water Temp Dewpoint Dewpoint Depression Visibility Wind Speed Wind Dir Waves Ship Positions

Disney Wonder

Last reported at 2017-Jul-22 06:00 UTC. Time now 2017-Jul-22 12:39 UTC.
Position N 57°24' W 133°42'.

Length 301 m; draft 8.2 m.

Type: Passenger vessel. MMSI: 308457000.

Wind from 330 at 9 knots

Barometer 1012.0 mb
Air temperature 15.0 ° C
Visibility: greater than 5.4 NM
Dewpoint 13.2 ° C
Water temperature 9.0 ° C

Date/timePositionNaut miles runAvg speedWind from/ knotsBaromVisibWave heightAir tempDewpointWater temp
2017-Jul-22 06:00N 57°24' W 133°42'95 2.2 330 / 91012.0 5.4 15.013.2 9.0
2017-Jul-20 11:00N 58°48' W 135°06'44810.7 180 / 91015.510.8 18.012.712.0
2017-Jul-18 17:00N 52°00' W 129°42'925.8 330 / 171017.010.8 13.011.110.0
2017-Jul-18 16:38N 51°51' W 129°38'320.6
2017-Jul-18 16:29N 51°48' W 129°36'1019.9
2017-Jul-18 16:00N 51°41' W 129°26'1019.9
2017-Jul-18 15:30N 51°35' W 129°14'1020.2
2017-Jul-18 15:00N 51°28' W 129°01'2121.0
2017-Jul-18 14:00N 51°15' W 128°35'1121.0
2017-Jul-18 13:30N 51°10' W 128°20'1121.1
2017-Jul-18 12:58N 51°05' W 128°04'1021.4
2017-Jul-18 12:30N 50°60' W 127°51'1122.0
2017-Jul-18 12:00N 50°53' W 127°37'1122.0
2017-Jul-18 11:30N 50°48' W 127°21'1122.3
2017-Jul-18 11:00N 50°44' W 127°05'1122.0
2017-Jul-18 10:30N 50°39' W 126°49'5219.8
2017-Jul-18 07:51N 50°21' W 125°32'614.1
2017-Jul-18 07:27N 50°18' W 125°25'817.6
2017-Jul-18 07:01N 50°10' W 125°22'611.8
2017-Jul-18 06:30N 50°05' W 125°17'612.9
2017-Jul-18 06:00N 49°60' W 125°12'713.5
2017-Jul-18 05:30N 49°55' W 125°04'815.7
2017-Jul-18 05:00N 49°50' W 124°55'815.8
2017-Jul-18 04:30N 49°45' W 124°46'815.8
2017-Jul-18 04:00N 49°38' W 124°39'816.2
2017-Jul-18 03:30N 49°32' W 124°32'915.6
2017-Jul-18 02:57N 49°26' W 124°22'716.1
2017-Jul-18 02:30N 49°24' W 124°12'816.2
2017-Jul-18 02:00N 49°21' W 123°59'917.3
2017-Jul-18 01:30N 49°20' W 123°46'917.6
2017-Jul-18 01:00N 49°19' W 123°33'917.6
2017-Jul-18 00:30N 49°19' W 123°20'815.7
2017-Jul-18 00:01N 49°19' W 123°08'1 2.6
2017-Jul-17 23:28N 49°17' W 123°07'0 0.0
2017-Jul-17 22:58N 49°17' W 123°07'0 0.0
2017-Jul-17 22:28N 49°17' W 123°07'0 0.0
2017-Jul-17 21:58N 49°17' W 123°07'0 0.0
2017-Jul-17 21:28N 49°17' W 123°07'0 0.0
2017-Jul-17 20:58N 49°17' W 123°07'0 0.0
2017-Jul-17 20:28N 49°17' W 123°07'0 0.0
2017-Jul-17 19:58N 49°17' W 123°07'0 0.0
2017-Jul-17 19:28N 49°17' W 123°07'0 0.0
2017-Jul-17 18:58N 49°17' W 123°07'0 0.0
2017-Jul-17 18:28N 49°17' W 123°07'0 0.0
2017-Jul-17 17:58N 49°17' W 123°07'0 0.0
2017-Jul-17 17:28N 49°17' W 123°07'0 0.0
2017-Jul-17 16:58N 49°17' W 123°07'0 0.0
2017-Jul-17 16:28N 49°17' W 123°07'0 0.0
2017-Jul-17 15:58N 49°17' W 123°07'0 0.0
2017-Jul-17 15:28N 49°17' W 123°07'0 0.0
2017-Jul-17 14:58N 49°17' W 123°07'0 0.0
2017-Jul-17 14:28N 49°17' W 123°07'0 0.0
2017-Jul-17 13:58N 49°17' W 123°07'0 0.4
2017-Jul-17 13:31N 49°18' W 123°07'2 4.4
2017-Jul-17 13:00N 49°19' W 123°09'510.0
2017-Jul-17 12:30N 49°18' W 123°17'5 9.9
2017-Jul-17 12:00N 49°18' W 123°25'5 9.7
2017-Jul-17 11:30N 49°18' W 123°32'5 9.4
2017-Jul-17 11:00N 49°18' W 123°39'510.4
2017-Jul-17 10:30N 49°19' W 123°47'1618.6
2017-Jul-17 09:38N 49°24' W 124°11'619.5
2017-Jul-17 09:21N 49°25' W 124°19'719.0
2017-Jul-17 08:57N 49°29' W 124°29'919.0
2017-Jul-17 08:30N 49°36' W 124°36'1019.0
2017-Jul-17 08:00N 49°43' W 124°46'918.9
2017-Jul-17 07:30N 49°50' W 124°57'1019.1
2017-Jul-17 07:00N 49°56' W 125°07'815.4
2017-Jul-17 06:30N 50°03' W 125°14'714.0
2017-Jul-17 06:00N 50°08' W 125°21'612.2
2017-Jul-17 05:29N 50°14' W 125°23'713.8
2017-Jul-17 05:00N 50°20' W 125°27'5015.5
2017-Jul-17 01:49N 50°34' W 126°42'515.1
2017-Jul-17 01:29N 50°38' W 126°47'816.2
2017-Jul-17 00:58N 50°42' W 126°58'816.0
2017-Jul-17 00:30N 50°45' W 127°09'816.1
2017-Jul-17 00:00N 50°48' W 127°21'816.8
2017-Jul-16 23:30N 50°52' W 127°33'917.8
2017-Jul-16 23:00N 50°57' W 127°44'917.6
2017-Jul-16 22:30N 51°05' W 127°52'918.1
2017-Jul-16 21:59N 51°14' W 127°53'917.8
2017-Jul-16 21:30N 51°23' W 127°52'917.6
2017-Jul-16 21:00N 51°31' W 127°51'918.2
2017-Jul-16 20:30N 51°40' W 127°54'917.9
2017-Jul-16 20:00N 51°49' W 127°56'917.5
2017-Jul-16 19:30N 51°58' W 127°56'918.0
2017-Jul-16 19:00N 52°07' W 127°53'2310.8
2017-Jul-16 16:52N 52°15' W 128°28'617.5
2017-Jul-16 16:30N 52°14' W 128°38'917.6
2017-Jul-16 16:00N 52°12' W 128°52'33610.2
2017-Jul-15 07:00N 56°48' W 134°24'67 1.3 230 / 51020.010.8 13.0 9.1 9.0
2017-Jul-13 05:00N 57°54' W 134°00'   150 / 81016.0 5.4 11.0 9.0 9.0

Dump ship's entire track history